Time;durP1;ratioP1;P1;durP2;ratioP2;P2;SDS_P1;SDS_P2;PMS_P1;PMS_P2;Temp;Humidity;BMP_temperature;BMP_pressure;BME280_temperature;BME280_humidity;BME280_pressure;Samples;Min_cycle;Max_cycle;Signal;HPM_P1;HPM_P2
2021/09/22 00:00:13;;;;;;;2.35;2.15;;;;;;;;;;5068431;28;20098;-57
2021/09/22 00:02:39;;;;;;;2.10;1.90;;;;;;;;;;5075854;28;20012;-58
2021/09/22 00:05:05;;;;;;;3.08;1.70;;;;;;;;;;5085199;28;20060;-57
2021/09/22 00:07:32;;;;;;;2.03;1.83;;;;;;;;;;5083595;28;20041;-57
2021/09/22 00:09:58;;;;;;;2.30;2.10;;;;;;;;;;5085388;28;20578;-56
2021/09/22 00:12:24;;;;;;;1.85;1.75;;;;;;;;;;5066683;28;20060;-57
2021/09/22 00:14:50;;;;;;;2.13;1.98;;;;;;;;;;5085577;28;20051;-57
2021/09/22 00:17:16;;;;;;;2.00;1.80;;;;;;;;;;5082942;28;20398;-58
2021/09/22 00:19:42;;;;;;;2.25;2.05;;;;;;;;;;5078531;28;20032;-57
2021/09/22 00:22:08;;;;;;;1.92;1.83;;;;;;;;;;5065786;28;20047;-57
2021/09/22 00:24:34;;;;;;;2.55;2.35;;;;;;;;;;5063547;28;20455;-57
2021/09/22 00:27:01;;;;;;;2.58;2.30;;;;;;;;;;5082123;28;20027;-56
2021/09/22 00:29:27;;;;;;;2.38;2.17;;;;;;;;;;5070002;28;20042;-57
2021/09/22 00:31:53;;;;;;;1.45;1.35;;;;;;;;;;5062923;28;20028;-57
2021/09/22 00:34:19;;;;;;;2.20;1.92;;;;;;;;;;5074724;28;20028;-57
2021/09/22 00:36:47;;;;;;;2.00;1.80;;;;;;;;;;5062563;28;20038;-58
2021/09/22 00:39:13;;;;;;;2.20;1.98;;;;;;;;;;5082666;28;20048;-58
2021/09/22 00:41:39;;;;;;;2.20;2.00;;;;;;;;;;5083183;28;20378;-57
2021/09/22 00:44:05;;;;;;;2.10;1.90;;;;;;;;;;5080693;28;20549;-58
2021/09/22 00:46:31;;;;;;;2.45;2.22;;;;;;;;;;5084016;28;20144;-58
2021/09/22 00:48:57;;;;;;;2.20;2.00;;;;;;;;;;5081159;28;20031;-56
2021/09/22 00:51:23;;;;;;;2.38;1.70;;;;;;;;;;5084381;28;20687;-57
2021/09/22 00:53:50;;;;;;;1.77;1.67;;;;;;;;;;5074017;28;20024;-57
2021/09/22 00:56:17;;;;;;;2.08;1.88;;;;;;;;;;5077857;28;20031;-57
2021/09/22 00:58:44;;;;;;;2.13;1.70;;;;;;;;;;5085516;28;20445;-57
2021/09/22 01:01:10;;;;;;;2.20;2.00;;;;;;;;;;5084986;28;20071;-57
2021/09/22 01:03:36;;;;;;;2.28;2.05;;;;;;;;;;5083143;28;20028;-57
2021/09/22 01:06:04;;;;;;;2.53;2.17;;;;;;;;;;5085138;28;20080;-57
2021/09/22 01:08:31;;;;;;;2.28;2.08;;;;;;;;;;5084986;28;20517;-57
2021/09/22 01:10:57;;;;;;;2.83;2.42;;;;;;;;;;5079673;28;20028;-57
2021/09/22 01:13:23;;;;;;;2.45;2.20;;;;;;;;;;5085162;28;20032;-58
2021/09/22 01:15:49;;;;;;;2.47;2.22;;;;;;;;;;5083714;28;20483;-57
2021/09/22 01:18:18;;;;;;;2.83;2.40;;;;;;;;;;5077335;28;20031;-58
2021/09/22 01:20:46;;;;;;;3.05;2.20;;;;;;;;;;5063704;28;20056;-57
2021/09/22 01:23:13;;;;;;;2.53;1.95;;;;;;;;;;5063331;28;20478;-57
2021/09/22 01:25:42;;;;;;;2.20;2.00;;;;;;;;;;5064540;28;20036;-57
2021/09/22 01:28:08;;;;;;;2.08;1.88;;;;;;;;;;5064323;28;20041;-57
2021/09/22 01:30:34;;;;;;;2.38;2.08;;;;;;;;;;5075862;28;20406;-58
2021/09/22 01:33:02;;;;;;;2.08;1.83;;;;;;;;;;5085300;28;20043;-58
2021/09/22 01:35:32;;;;;;;2.08;1.88;;;;;;;;;;5081044;28;20032;-58
2021/09/22 01:37:58;;;;;;;2.67;2.40;;;;;;;;;;5064172;28;20032;-57
2021/09/22 01:40:25;;;;;;;2.17;1.98;;;;;;;;;;5063860;28;20035;-57
2021/09/22 01:42:51;;;;;;;2.17;1.95;;;;;;;;;;5064540;28;20063;-57
2021/09/22 01:45:17;;;;;;;2.30;2.10;;;;;;;;;;5064490;28;20221;-57
2021/09/22 01:47:44;;;;;;;3.20;2.63;;;;;;;;;;5064666;28;20044;-57
2021/09/22 01:50:14;;;;;;;3.13;2.05;;;;;;;;;;5069581;28;20031;-57
2021/09/22 01:52:41;;;;;;;2.10;1.90;;;;;;;;;;5084769;28;20494;-57
2021/09/22 01:55:07;;;;;;;2.10;1.90;;;;;;;;;;5084507;28;20035;-57
2021/09/22 01:57:34;;;;;;;2.33;2.10;;;;;;;;;;5066484;28;20036;-57
2021/09/22 02:00:00;;;;;;;2.10;1.90;;;;;;;;;;5064829;28;20392;-57
2021/09/22 02:02:26;;;;;;;2.28;2.05;;;;;;;;;;5063697;28;20024;-57
2021/09/22 02:04:53;;;;;;;2.38;2.17;;;;;;;;;;5045775;28;20039;-56
2021/09/22 02:07:19;;;;;;;2.55;2.20;;;;;;;;;;5074183;28;20103;-57
2021/09/22 02:09:45;;;;;;;2.55;2.15;;;;;;;;;;5084836;28;20111;-57
2021/09/22 02:12:11;;;;;;;2.47;2.15;;;;;;;;;;5074690;28;20107;-57
2021/09/22 02:14:38;;;;;;;2.58;2.38;;;;;;;;;;5063430;28;20115;-57
2021/09/22 02:17:05;;;;;;;2.25;2.05;;;;;;;;;;5063573;28;20028;-57
2021/09/22 02:19:31;;;;;;;2.08;1.88;;;;;;;;;;5064581;28;20025;-57
2021/09/22 02:21:57;;;;;;;2.95;2.65;;;;;;;;;;5063875;28;20025;-57
2021/09/22 02:24:24;;;;;;;2.47;2.28;;;;;;;;;;5072770;28;20039;-57
2021/09/22 02:26:52;;;;;;;2.60;2.25;;;;;;;;;;5084570;28;20032;-57
2021/09/22 02:29:21;;;;;;;2.50;2.30;;;;;;;;;;5066478;28;20438;-57
2021/09/22 02:31:49;;;;;;;2.75;2.55;;;;;;;;;;5084131;28;20024;-57
2021/09/22 02:34:15;;;;;;;3.33;2.90;;;;;;;;;;5083035;28;20024;-57
2021/09/22 02:36:42;;;;;;;3.38;2.80;;;;;;;;;;5088176;28;20077;-58
2021/09/22 02:39:09;;;;;;;3.33;2.70;;;;;;;;;;5087891;28;20024;-58
2021/09/22 02:41:36;;;;;;;2.67;2.47;;;;;;;;;;5087875;28;20360;-58
2021/09/22 02:44:04;;;;;;;3.40;3.00;;;;;;;;;;5086139;28;20044;-57
2021/09/22 02:46:31;;;;;;;4.43;3.15;;;;;;;;;;5086162;28;20495;-57
2021/09/22 02:48:57;;;;;;;2.63;2.40;;;;;;;;;;5066139;28;20511;-57
2021/09/22 02:51:23;;;;;;;3.30;3.00;;;;;;;;;;5049717;28;20117;-57
2021/09/22 02:53:49;;;;;;;3.55;3.20;;;;;;;;;;5067481;28;20150;-57
2021/09/22 02:56:15;;;;;;;4.05;3.00;;;;;;;;;;5067118;28;20501;-57
2021/09/22 02:58:41;;;;;;;3.65;3.00;;;;;;;;;;5066564;28;20039;-57
2021/09/22 03:01:08;;;;;;;3.00;2.70;;;;;;;;;;5074937;28;20035;-57
2021/09/22 03:03:34;;;;;;;3.33;3.03;;;;;;;;;;5087183;28;20096;-57
2021/09/22 03:06:01;;;;;;;3.75;2.97;;;;;;;;;;5087982;28;20028;-57
2021/09/22 03:08:28;;;;;;;3.83;3.10;;;;;;;;;;5073816;28;20040;-57
2021/09/22 03:10:55;;;;;;;3.28;2.95;;;;;;;;;;5066946;28;20530;-58
2021/09/22 03:13:22;;;;;;;4.32;3.17;;;;;;;;;;5075897;28;20020;-57
2021/09/22 03:15:48;;;;;;;3.20;2.90;;;;;;;;;;5080982;28;20404;-57
2021/09/22 03:18:14;;;;;;;3.67;2.83;;;;;;;;;;5084344;28;20063;-58
2021/09/22 03:20:40;;;;;;;3.30;3.00;;;;;;;;;;5072474;28;20087;-57
2021/09/22 03:23:06;;;;;;;3.28;2.97;;;;;;;;;;5067161;28;20028;-57
2021/09/22 03:25:32;;;;;;;3.03;2.72;;;;;;;;;;5067356;28;20139;-57
2021/09/22 03:27:58;;;;;;;4.50;2.72;;;;;;;;;;5067480;28;20496;-57
2021/09/22 03:30:25;;;;;;;3.15;2.85;;;;;;;;;;5073135;28;20070;-58
2021/09/22 03:32:51;;;;;;;3.13;2.83;;;;;;;;;;5087345;28;20032;-57
2021/09/22 03:35:17;;;;;;;3.50;2.55;;;;;;;;;;5087126;28;20046;-57
2021/09/22 03:37:43;;;;;;;3.22;2.70;;;;;;;;;;5087053;28;20036;-57
2021/09/22 03:40:10;;;;;;;3.05;2.75;;;;;;;;;;5061987;28;20426;-57
2021/09/22 03:42:36;;;;;;;3.85;2.90;;;;;;;;;;5066681;28;20672;-58
2021/09/22 03:45:03;;;;;;;2.70;2.50;;;;;;;;;;5067119;28;20032;-57
2021/09/22 03:47:30;;;;;;;3.30;3.00;;;;;;;;;;5065909;28;20037;-57
2021/09/22 03:49:57;;;;;;;2.67;2.35;;;;;;;;;;5066178;28;20060;-57
2021/09/22 03:52:23;;;;;;;3.55;3.22;;;;;;;;;;5066254;28;20057;-57
2021/09/22 03:54:49;;;;;;;3.13;2.83;;;;;;;;;;5065644;28;20090;-56
2021/09/22 03:57:15;;;;;;;3.25;2.95;;;;;;;;;;5066362;28;20048;-57
2021/09/22 03:59:41;;;;;;;3.13;2.80;;;;;;;;;;5071336;28;20028;-57
2021/09/22 04:02:07;;;;;;;3.15;2.85;;;;;;;;;;5065555;28;20029;-57
2021/09/22 04:04:33;;;;;;;3.25;2.95;;;;;;;;;;5066845;28;20021;-57
2021/09/22 04:07:00;;;;;;;3.28;2.65;;;;;;;;;;5066088;28;20036;-57
2021/09/22 04:09:26;;;;;;;3.70;3.03;;;;;;;;;;5065935;28;20024;-57
2021/09/22 04:11:52;;;;;;;3.13;2.80;;;;;;;;;;5064601;28;20491;-58
2021/09/22 04:14:19;;;;;;;3.50;3.00;;;;;;;;;;5065707;28;20533;-57
2021/09/22 04:16:46;;;;;;;3.78;2.90;;;;;;;;;;5065934;28;20032;-57
2021/09/22 04:19:12;;;;;;;3.05;2.55;;;;;;;;;;5085818;28;20020;-57
2021/09/22 04:21:38;;;;;;;3.33;2.90;;;;;;;;;;5067840;28;20102;-57
2021/09/22 04:24:05;;;;;;;3.28;2.97;;;;;;;;;;5065663;28;20024;-57
2021/09/22 04:26:31;;;;;;;3.30;2.85;;;;;;;;;;5066004;28;20028;-57
2021/09/22 04:28:57;;;;;;;3.25;2.92;;;;;;;;;;5078303;28;20028;-57
2021/09/22 04:31:24;;;;;;;2.83;2.60;;;;;;;;;;5085600;28;20039;-57
2021/09/22 04:33:51;;;;;;;3.67;2.95;;;;;;;;;;5085914;28;20059;-57
2021/09/22 04:36:18;;;;;;;3.17;2.88;;;;;;;;;;5083080;28;20275;-57
2021/09/22 04:38:45;;;;;;;3.08;2.78;;;;;;;;;;5064980;28;20090;-57
2021/09/22 04:41:11;;;;;;;2.85;2.60;;;;;;;;;;5064917;28;20032;-57
2021/09/22 04:43:38;;;;;;;3.63;3.10;;;;;;;;;;5084029;28;20388;-58
2021/09/22 04:46:04;;;;;;;4.53;3.13;;;;;;;;;;5086136;28;20087;-57
2021/09/22 04:48:30;;;;;;;3.28;2.97;;;;;;;;;;5067923;28;20521;-57
2021/09/22 04:50:56;;;;;;;3.30;2.97;;;;;;;;;;5073856;28;20082;-57
2021/09/22 04:53:23;;;;;;;4.00;2.88;;;;;;;;;;5065217;28;20508;-57
2021/09/22 04:55:49;;;;;;;3.80;3.40;;;;;;;;;;5063919;28;20032;-57
2021/09/22 04:58:15;;;;;;;3.45;3.13;;;;;;;;;;5065026;28;20403;-57
2021/09/22 05:00:41;;;;;;;3.80;3.40;;;;;;;;;;5064980;28;20020;-57
2021/09/22 05:03:07;;;;;;;3.45;2.90;;;;;;;;;;5064615;28;20028;-57
2021/09/22 05:05:33;;;;;;;3.50;3.20;;;;;;;;;;5064711;28;20029;-57
2021/09/22 05:08:00;;;;;;;4.80;3.33;;;;;;;;;;5065685;28;20037;-58
2021/09/22 05:10:29;;;;;;;3.20;2.90;;;;;;;;;;5064861;28;20093;-57
2021/09/22 05:12:55;;;;;;;4.03;3.63;;;;;;;;;;5065207;28;20032;-57
2021/09/22 05:15:21;;;;;;;4.13;3.42;;;;;;;;;;5063903;28;20039;-57
2021/09/22 05:17:47;;;;;;;3.85;3.50;;;;;;;;;;5070173;28;20024;-57
2021/09/22 05:20:13;;;;;;;5.30;3.90;;;;;;;;;;5085088;28;20479;-56
2021/09/22 05:22:40;;;;;;;3.95;3.30;;;;;;;;;;5085088;28;20111;-57
2021/09/22 05:25:06;;;;;;;4.57;3.58;;;;;;;;;;5072816;28;20054;-57
2021/09/22 05:27:32;;;;;;;5.07;4.07;;;;;;;;;;5064891;28;20044;-57
2021/09/22 05:29:59;;;;;;;4.78;3.88;;;;;;;;;;5064932;28;20020;-57
2021/09/22 05:32:26;;;;;;;7.32;4.68;;;;;;;;;;5064786;28;20028;-58
2021/09/22 05:34:53;;;;;;;4.80;4.30;;;;;;;;;;5064611;28;20024;-58
2021/09/22 05:37:20;;;;;;;4.25;3.78;;;;;;;;;;5064484;28;20071;-58
2021/09/22 05:39:46;;;;;;;4.85;3.95;;;;;;;;;;5065086;28;20044;-57
2021/09/22 05:42:12;;;;;;;6.55;4.50;;;;;;;;;;5064542;28;20028;-57
2021/09/22 05:44:38;;;;;;;4.75;4.13;;;;;;;;;;5066801;28;20427;-57
2021/09/22 05:47:05;;;;;;;5.68;4.18;;;;;;;;;;5075261;28;20112;-57
2021/09/22 05:49:31;;;;;;;4.75;3.83;;;;;;;;;;5065162;28;20025;-57
2021/09/22 05:51:57;;;;;;;5.85;4.90;;;;;;;;;;5064475;28;20043;-57
2021/09/22 05:54:24;;;;;;;5.85;4.82;;;;;;;;;;5064631;28;20032;-58
2021/09/22 05:56:51;;;;;;;5.95;4.82;;;;;;;;;;5064478;28;20090;-57
2021/09/22 05:59:18;;;;;;;6.47;5.28;;;;;;;;;;5063796;28;20051;-57
2021/09/22 06:01:45;;;;;;;6.65;5.10;;;;;;;;;;5064689;28;20064;-56
2021/09/22 06:04:12;;;;;;;6.35;5.15;;;;;;;;;;5064124;28;20025;-57
2021/09/22 06:06:39;;;;;;;6.45;4.95;;;;;;;;;;5069561;28;20024;-57
2021/09/22 06:09:05;;;;;;;6.03;4.95;;;;;;;;;;5086097;28;20028;-57
2021/09/22 06:11:31;;;;;;;6.25;4.72;;;;;;;;;;5071772;28;20030;-57
2021/09/22 06:13:57;;;;;;;6.60;5.22;;;;;;;;;;5068509;28;20024;-57
2021/09/22 06:16:24;;;;;;;5.85;4.65;;;;;;;;;;5086063;28;20028;-57
2021/09/22 06:18:50;;;;;;;6.32;5.20;;;;;;;;;;5089898;28;20024;-56
2021/09/22 06:21:16;;;;;;;6.95;4.90;;;;;;;;;;5089700;28;20031;-57
2021/09/22 06:23:42;;;;;;;6.38;4.80;;;;;;;;;;5090122;28;20356;-57
2021/09/22 06:26:08;;;;;;;5.20;4.05;;;;;;;;;;5073418;28;20035;-57
2021/09/22 06:28:35;;;;;;;6.53;4.80;;;;;;;;;;5067891;28;20036;-57
2021/09/22 06:31:02;;;;;;;6.05;4.72;;;;;;;;;;5079970;28;20078;-57
2021/09/22 06:33:28;;;;;;;7.03;5.03;;;;;;;;;;5080340;28;20032;-57
2021/09/22 06:36:00;;;;;;;7.13;5.07;;;;;;;;;;5069400;28;20825;-57
2021/09/22 06:38:27;;;;;;;6.15;4.50;;;;;;;;;;5089227;28;20109;-57
2021/09/22 06:40:53;;;;;;;7.13;4.95;;;;;;;;;;5079101;28;20027;-57
2021/09/22 06:43:19;;;;;;;6.03;5.07;;;;;;;;;;5068741;28;20028;-57
2021/09/22 06:45:45;;;;;;;8.05;5.50;;;;;;;;;;5068638;28;20052;-57
2021/09/22 06:48:11;;;;;;;6.75;4.93;;;;;;;;;;5076377;28;20021;-56
2021/09/22 06:50:38;;;;;;;5.68;4.32;;;;;;;;;;5056241;28;20040;-56
2021/09/22 06:53:04;;;;;;;4.70;3.65;;;;;;;;;;5088492;28;20024;-57
2021/09/22 06:55:31;;;;;;;5.05;4.25;;;;;;;;;;5079058;28;20039;-57
2021/09/22 06:57:57;;;;;;;6.55;4.22;;;;;;;;;;5082582;28;20442;-57
2021/09/22 07:00:23;;;;;;;6.30;4.63;;;;;;;;;;5068242;28;20121;-56
2021/09/22 07:02:49;;;;;;;5.80;4.13;;;;;;;;;;5067120;28;20016;-57
2021/09/22 07:05:16;;;;;;;6.30;4.72;;;;;;;;;;5068476;28;20100;-57
2021/09/22 07:07:46;;;;;;;5.80;4.25;;;;;;;;;;5049025;28;20536;-57
2021/09/22 07:10:13;;;;;;;4.93;4.00;;;;;;;;;;5065049;28;20028;-57
2021/09/22 07:12:39;;;;;;;5.32;4.22;;;;;;;;;;5066609;28;20025;-57
2021/09/22 07:15:05;;;;;;;6.10;4.40;;;;;;;;;;5065467;28;20075;-57
2021/09/22 07:17:31;;;;;;;6.65;4.68;;;;;;;;;;5054080;28;20033;-57
2021/09/22 07:19:57;;;;;;;4.18;3.78;;;;;;;;;;5067107;28;20395;-57
2021/09/22 07:22:23;;;;;;;6.47;4.15;;;;;;;;;;5066964;28;20548;-57
2021/09/22 07:24:49;;;;;;;5.15;4.22;;;;;;;;;;5068659;28;20491;-57
2021/09/22 07:27:16;;;;;;;5.32;4.47;;;;;;;;;;5070924;28;20024;-57
2021/09/22 07:29:42;;;;;;;6.40;4.20;;;;;;;;;;5083777;28;20090;-57
2021/09/22 07:32:09;;;;;;;5.43;4.20;;;;;;;;;;5068125;28;20071;-57
2021/09/22 07:34:36;;;;;;;5.85;4.82;;;;;;;;;;5068616;28;20116;-57
2021/09/22 07:37:07;;;;;;;6.55;4.72;;;;;;;;;;5068958;28;20028;-57
2021/09/22 07:39:33;;;;;;;6.03;4.43;;;;;;;;;;5087441;28;20403;-57
2021/09/22 07:42:00;;;;;;;4.75;3.85;;;;;;;;;;5068421;28;20110;-57
2021/09/22 07:44:26;;;;;;;5.45;4.03;;;;;;;;;;5070805;28;20035;-57
2021/09/22 07:46:52;;;;;;;5.30;4.18;;;;;;;;;;5071010;28;20078;-56
2021/09/22 07:49:18;;;;;;;4.28;3.67;;;;;;;;;;5068601;28;20032;-56
2021/09/22 07:51:44;;;;;;;5.25;4.25;;;;;;;;;;5076905;28;20899;-57
2021/09/22 07:54:10;;;;;;;4.90;4.00;;;;;;;;;;5060466;28;20480;-57
2021/09/22 07:56:36;;;;;;;6.40;4.57;;;;;;;;;;5048494;28;20488;-56
2021/09/22 07:59:02;;;;;;;6.47;4.70;;;;;;;;;;5066742;28;20024;-57
2021/09/22 08:01:28;;;;;;;6.70;5.10;;;;;;;;;;5066871;28;20028;-57
2021/09/22 08:03:54;;;;;;;7.63;5.57;;;;;;;;;;5079894;28;21142;-57
2021/09/22 08:06:20;;;;;;;5.55;4.65;;;;;;;;;;5069664;28;20028;-57
2021/09/22 08:08:46;;;;;;;6.68;4.95;;;;;;;;;;5088912;28;20553;-57
2021/09/22 08:11:12;;;;;;;6.47;5.10;;;;;;;;;;5075745;28;21731;-57
2021/09/22 08:13:40;;;;;;;6.50;4.90;;;;;;;;;;5066502;28;20070;-57
2021/09/22 08:16:06;;;;;;;6.25;4.82;;;;;;;;;;5065735;28;20028;-57
2021/09/22 08:18:32;;;;;;;6.00;4.57;;;;;;;;;;5066011;28;20024;-56
2021/09/22 08:20:58;;;;;;;6.47;5.10;;;;;;;;;;5067317;28;20198;-55
2021/09/22 08:23:24;;;;;;;6.18;4.70;;;;;;;;;;5067749;28;20450;-57
2021/09/22 08:25:51;;;;;;;6.13;4.88;;;;;;;;;;5068102;28;20027;-57
2021/09/22 08:28:17;;;;;;;5.28;3.95;;;;;;;;;;5067643;28;20388;-57
2021/09/22 08:30:44;;;;;;;4.35;3.70;;;;;;;;;;5067421;28;20043;-57
2021/09/22 08:33:10;;;;;;;5.88;4.38;;;;;;;;;;5076500;28;20213;-57
2021/09/22 08:35:36;;;;;;;5.63;3.92;;;;;;;;;;5071853;28;20040;-57
2021/09/22 08:38:03;;;;;;;5.03;4.00;;;;;;;;;;5079473;28;20035;-57
2021/09/22 08:40:29;;;;;;;4.20;3.80;;;;;;;;;;5062632;28;20029;-57
2021/09/22 08:42:55;;;;;;;4.57;3.97;;;;;;;;;;5053535;28;20484;-57
2021/09/22 08:45:21;;;;;;;4.22;3.83;;;;;;;;;;5066831;28;20015;-55
2021/09/22 08:47:47;;;;;;;5.38;4.15;;;;;;;;;;5067220;28;20032;-56
2021/09/22 08:50:15;;;;;;;5.47;3.90;;;;;;;;;;5067498;28;20028;-57
2021/09/22 08:52:42;;;;;;;4.50;4.10;;;;;;;;;;5067434;28;20028;-57
2021/09/22 08:55:08;;;;;;;5.63;3.92;;;;;;;;;;5067165;28;20032;-57
2021/09/22 08:57:35;;;;;;;5.15;4.18;;;;;;;;;;5048955;28;20093;-57
2021/09/22 09:00:01;;;;;;;5.45;4.53;;;;;;;;;;5067927;28;20048;-57
2021/09/22 09:02:36;;;;;;;4.88;4.03;;;;;;;;;;5066414;28;20067;-57
2021/09/22 09:05:04;;;;;;;4.43;4.03;;;;;;;;;;5068095;28;20031;-57
2021/09/22 09:07:33;;;;;;;5.18;4.68;;;;;;;;;;5055542;28;20116;-57
2021/09/22 09:10:09;;;;;;;6.35;4.38;;;;;;;;;;5066568;28;20038;-57
2021/09/22 09:12:36;;;;;;;6.18;5.03;;;;;;;;;;5065472;28;20033;-57
2021/09/22 09:15:07;;;;;;;6.10;5.50;;;;;;;;;;5065141;28;20404;-57
2021/09/22 09:17:39;;;;;;;6.93;5.68;;;;;;;;;;5060942;28;20040;-57
2021/09/22 09:20:14;;;;;;;6.20;5.25;;;;;;;;;;5066346;28;20012;-57
2021/09/22 09:22:41;;;;;;;5.35;4.72;;;;;;;;;;5066018;28;20028;-57
2021/09/22 09:25:07;;;;;;;6.72;6.03;;;;;;;;;;5066286;28;20016;-57
2021/09/22 09:27:34;;;;;;;6.18;4.90;;;;;;;;;;5049533;28;20100;-56
2021/09/22 09:30:13;;;;;;;5.63;4.95;;;;;;;;;;5048306;28;20029;-57
2021/09/22 09:32:39;;;;;;;6.03;5.28;;;;;;;;;;5065763;28;20028;-57
2021/09/22 09:35:07;;;;;;;5.07;4.13;;;;;;;;;;5066204;28;20547;-58
2021/09/22 09:37:36;;;;;;;7.10;5.15;;;;;;;;;;5066487;28;20035;-57
2021/09/22 09:40:22;;;;;;;6.00;4.85;;;;;;;;;;5066178;28;20017;-57
2021/09/22 09:42:50;;;;;;;5.22;3.95;;;;;;;;;;5054660;28;20393;-57
2021/09/22 09:45:19;;;;;;;4.93;4.35;;;;;;;;;;5057717;28;20021;-57
2021/09/22 09:47:58;;;;;;;4.38;3.97;;;;;;;;;;5066288;28;20043;-57
2021/09/22 09:50:25;;;;;;;4.40;3.78;;;;;;;;;;5068355;28;20104;-57
2021/09/22 09:53:00;;;;;;;4.70;4.18;;;;;;;;;;5069190;28;20036;-57
2021/09/22 09:55:28;;;;;;;4.43;4.00;;;;;;;;;;5067270;28;20024;-57
2021/09/22 09:57:55;;;;;;;5.85;4.93;;;;;;;;;;5070638;28;20051;-57
2021/09/22 10:00:23;;;;;;;5.85;4.72;;;;;;;;;;5050110;28;20033;-57
2021/09/22 10:02:51;;;;;;;5.63;4.40;;;;;;;;;;5069092;28;20495;-57
2021/09/22 10:05:17;;;;;;;4.20;3.80;;;;;;;;;;5069344;28;20013;-57
2021/09/22 10:07:47;;;;;;;4.45;3.85;;;;;;;;;;5086600;28;20513;-57
2021/09/22 10:10:14;;;;;;;3.45;3.15;;;;;;;;;;5067309;28;20036;-57
2021/09/22 10:12:41;;;;;;;4.25;3.42;;;;;;;;;;5058656;28;20032;-57
2021/09/22 10:15:08;;;;;;;5.25;4.53;;;;;;;;;;5068449;28;20188;-57
2021/09/22 10:17:37;;;;;;;4.97;4.47;;;;;;;;;;5067300;28;20036;-57
2021/09/22 10:20:03;;;;;;;4.50;4.10;;;;;;;;;;5069295;28;20030;-57
2021/09/22 10:22:30;;;;;;;4.30;3.90;;;;;;;;;;5074979;28;20043;-57
2021/09/22 10:24:56;;;;;;;5.90;5.25;;;;;;;;;;5068612;28;20131;-57
2021/09/22 10:27:24;;;;;;;6.20;5.07;;;;;;;;;;5071347;28;20033;-57
2021/09/22 10:29:51;;;;;;;4.80;4.05;;;;;;;;;;5069905;28;20024;-57
2021/09/22 10:32:33;;;;;;;4.60;3.95;;;;;;;;;;5068381;28;20036;-58
2021/09/22 10:35:18;;;;;;;3.78;3.30;;;;;;;;;;5078477;28;20034;-57
2021/09/22 10:37:45;;;;;;;3.40;3.08;;;;;;;;;;5060626;28;20047;-58
2021/09/22 10:40:16;;;;;;;4.10;3.70;;;;;;;;;;5068436;28;20044;-57
2021/09/22 10:42:43;;;;;;;3.53;3.22;;;;;;;;;;5028834;28;1107775;-57
2021/09/22 10:45:22;;;;;;;3.35;3.05;;;;;;;;;;5069110;28;20020;-57
2021/09/22 10:47:49;;;;;;;3.60;3.30;;;;;;;;;;5044425;28;20059;-57
2021/09/22 10:50:35;;;;;;;3.10;2.80;;;;;;;;;;5069792;28;20395;-57
2021/09/22 10:53:01;;;;;;;2.95;2.65;;;;;;;;;;5059728;28;20040;-56
2021/09/22 10:55:28;;;;;;;4.32;3.50;;;;;;;;;;5072364;28;20039;-57
2021/09/22 10:58:09;;;;;;;3.67;3.28;;;;;;;;;;5069875;28;20549;-57
2021/09/22 11:00:39;;;;;;;4.22;3.60;;;;;;;;;;5069470;28;20107;-57
2021/09/22 11:03:05;;;;;;;2.78;2.58;;;;;;;;;;5068959;28;20029;-57
2021/09/22 11:05:35;;;;;;;3.80;3.13;;;;;;;;;;5070224;28;20028;-57
2021/09/22 11:08:04;;;;;;;3.15;2.85;;;;;;;;;;5069549;28;20028;-57
2021/09/22 11:10:30;;;;;;;3.13;2.83;;;;;;;;;;5069134;28;20024;-57
2021/09/22 11:13:16;;;;;;;3.22;2.92;;;;;;;;;;5061284;28;20033;-57
2021/09/22 11:15:43;;;;;;;3.35;2.83;;;;;;;;;;5052196;28;20743;-57
2021/09/22 11:18:10;;;;;;;2.95;2.60;;;;;;;;;;5069326;28;20537;-58
2021/09/22 11:20:36;;;;;;;2.85;2.65;;;;;;;;;;5069231;28;20031;-57
2021/09/22 11:23:10;;;;;;;3.65;2.95;;;;;;;;;;5069960;28;20057;-57
2021/09/22 11:25:36;;;;;;;3.50;3.20;;;;;;;;;;5071656;28;20012;-57
2021/09/22 11:28:08;;;;;;;3.10;2.80;;;;;;;;;;5090349;28;20395;-57
2021/09/22 11:30:39;;;;;;;3.42;3.13;;;;;;;;;;5082093;28;20071;-58
2021/09/22 11:33:05;;;;;;;3.63;2.80;;;;;;;;;;5069085;28;20032;-58
2021/09/22 11:35:32;;;;;;;3.05;2.75;;;;;;;;;;5070000;28;20056;-58
2021/09/22 11:37:59;;;;;;;3.67;3.08;;;;;;;;;;5083372;28;20024;-58
2021/09/22 11:40:31;;;;;;;3.13;2.80;;;;;;;;;;5067063;28;20020;-58
2021/09/22 11:43:03;;;;;;;2.97;2.67;;;;;;;;;;5068090;28;20035;-59
2021/09/22 11:45:33;;;;;;;2.40;2.20;;;;;;;;;;5068129;28;20103;-59
2021/09/22 11:47:59;;;;;;;2.60;2.38;;;;;;;;;;5066294;28;20028;-58
2021/09/22 11:50:26;;;;;;;3.13;2.83;;;;;;;;;;5066908;28;20472;-59
2021/09/22 11:52:52;;;;;;;3.17;2.88;;;;;;;;;;5062941;28;20099;-59
2021/09/22 11:55:20;;;;;;;2.60;2.40;;;;;;;;;;5054930;28;20135;-59
2021/09/22 11:57:46;;;;;;;3.58;2.78;;;;;;;;;;5046262;28;20437;-59
2021/09/22 12:00:19;;;;;;;2.88;2.67;;;;;;;;;;5064485;28;20491;-59
2021/09/22 12:02:45;;;;;;;3.30;3.00;;;;;;;;;;5066230;28;20082;-59
2021/09/22 12:05:15;;;;;;;3.20;2.90;;;;;;;;;;5067638;28;20032;-59
2021/09/22 12:07:43;;;;;;;2.92;2.63;;;;;;;;;;5065791;28;20036;-59
2021/09/22 12:10:09;;;;;;;3.30;3.00;;;;;;;;;;5065650;28;20036;-59
2021/09/22 12:12:37;;;;;;;3.45;3.10;;;;;;;;;;5047677;28;20501;-59
2021/09/22 12:15:04;;;;;;;3.03;2.72;;;;;;;;;;5048585;28;20038;-59
2021/09/22 12:17:33;;;;;;;2.47;2.28;;;;;;;;;;5065810;28;20078;-59
2021/09/22 12:20:02;;;;;;;3.00;2.70;;;;;;;;;;5066296;28;20016;-59
2021/09/22 12:22:30;;;;;;;2.72;2.53;;;;;;;;;;5029559;28;20427;-59
2021/09/22 12:24:56;;;;;;;2.40;2.20;;;;;;;;;;5047224;28;20091;-59
2021/09/22 12:27:22;;;;;;;2.83;2.58;;;;;;;;;;5045424;28;20040;-59
2021/09/22 12:29:52;;;;;;;2.60;2.40;;;;;;;;;;5045848;28;20040;-59
2021/09/22 12:32:18;;;;;;;2.67;2.47;;;;;;;;;;5045615;28;20104;-60
2021/09/22 12:34:44;;;;;;;3.38;2.42;;;;;;;;;;5046141;28;20044;-60
2021/09/22 12:37:15;;;;;;;2.90;2.60;;;;;;;;;;5045991;28;20035;-60
2021/09/22 12:39:52;;;;;;;2.80;2.60;;;;;;;;;;5045354;28;20017;-60
2021/09/22 12:42:18;;;;;;;2.60;2.40;;;;;;;;;;5044935;28;20120;-60
2021/09/22 12:45:03;;;;;;;2.28;2.08;;;;;;;;;;5045745;28;20100;-60
2021/09/22 12:47:30;;;;;;;4.82;3.15;;;;;;;;;;5045562;28;20027;-59
2021/09/22 12:50:10;;;;;;;3.75;3.33;;;;;;;;;;5045232;28;20024;-59
2021/09/22 12:52:36;;;;;;;3.50;3.20;;;;;;;;;;5045213;28;20029;-60
2021/09/22 12:55:22;;;;;;;3.45;3.13;;;;;;;;;;5045826;28;20085;-60
2021/09/22 12:57:52;;;;;;;3.10;2.83;;;;;;;;;;5045425;28;20028;-60
2021/09/22 13:00:37;;;;;;;3.55;3.03;;;;;;;;;;5044958;28;20025;-60
2021/09/22 13:03:14;;;;;;;3.25;2.90;;;;;;;;;;5044996;28;20025;-60
2021/09/22 13:05:43;;;;;;;2.83;2.63;;;;;;;;;;5045032;28;20477;-60
2021/09/22 13:08:10;;;;;;;3.20;2.90;;;;;;;;;;5045255;28;20458;-60
2021/09/22 13:10:56;;;;;;;2.80;2.50;;;;;;;;;;5044424;28;20475;-60
2021/09/22 13:13:23;;;;;;;2.72;2.53;;;;;;;;;;5044893;28;20032;-60
2021/09/22 13:15:54;;;;;;;3.20;2.90;;;;;;;;;;5045175;28;20029;-60
2021/09/22 13:18:22;;;;;;;3.47;2.78;;;;;;;;;;5044607;28;20482;-60
2021/09/22 13:20:49;;;;;;;2.67;2.38;;;;;;;;;;5045128;28;20365;-60
2021/09/22 13:23:22;;;;;;;2.30;2.10;;;;;;;;;;5045318;28;20041;-60
2021/09/22 13:25:49;;;;;;;2.00;1.85;;;;;;;;;;5044474;28;20074;-60
2021/09/22 13:28:16;;;;;;;2.35;2.15;;;;;;;;;;5045440;28;20400;-60
2021/09/22 13:30:42;;;;;;;2.20;2.00;;;;;;;;;;5044735;28;20021;-60
2021/09/22 13:33:12;;;;;;;2.55;2.10;;;;;;;;;;5044945;28;20389;-60
2021/09/22 13:35:38;;;;;;;2.28;2.08;;;;;;;;;;5044733;28;20116;-60
2021/09/22 13:38:04;;;;;;;2.50;2.30;;;;;;;;;;5043721;28;20144;-60
2021/09/22 13:40:30;;;;;;;3.22;2.92;;;;;;;;;;5044940;28;20021;-60
2021/09/22 13:42:56;;;;;;;2.55;2.20;;;;;;;;;;5044865;28;20025;-61
2021/09/22 13:45:22;;;;;;;3.00;2.35;;;;;;;;;;5044622;28;20020;-60
2021/09/22 13:47:49;;;;;;;2.33;2.00;;;;;;;;;;5045166;28;20029;-60
2021/09/22 13:50:15;;;;;;;2.38;2.17;;;;;;;;;;5043531;28;20495;-60
2021/09/22 13:52:42;;;;;;;2.50;2.28;;;;;;;;;;5044541;28;20491;-60
2021/09/22 13:55:08;;;;;;;1.98;1.88;;;;;;;;;;5044464;28;20090;-60
2021/09/22 13:57:35;;;;;;;2.42;2.22;;;;;;;;;;5044896;28;20119;-60
2021/09/22 14:00:02;;;;;;;2.67;2.47;;;;;;;;;;5045387;28;20025;-60
2021/09/22 14:02:28;;;;;;;2.25;2.05;;;;;;;;;;5043980;28;20021;-60
2021/09/22 14:04:54;;;;;;;2.30;2.10;;;;;;;;;;5043624;28;20056;-60
2021/09/22 14:07:21;;;;;;;2.25;2.05;;;;;;;;;;5044386;28;20580;-60
2021/09/22 14:09:47;;;;;;;2.47;2.20;;;;;;;;;;5044428;28;20026;-60
2021/09/22 14:12:13;;;;;;;2.08;1.88;;;;;;;;;;5044502;28;20040;-60
2021/09/22 14:14:40;;;;;;;2.40;2.20;;;;;;;;;;5044572;28;20055;-60
2021/09/22 14:17:07;;;;;;;2.88;2.58;;;;;;;;;;5044774;28;20391;-60
2021/09/22 14:19:33;;;;;;;2.45;2.25;;;;;;;;;;5044860;28;20040;-60
2021/09/22 14:22:00;;;;;;;2.58;2.38;;;;;;;;;;5044612;28;20423;-60
2021/09/22 14:24:27;;;;;;;2.00;1.88;;;;;;;;;;5043886;28;20025;-60
2021/09/22 14:26:54;;;;;;;2.13;1.92;;;;;;;;;;5044500;28;20075;-60
2021/09/22 14:29:20;;;;;;;2.30;2.10;;;;;;;;;;5044304;28;20483;-60
2021/09/22 14:31:46;;;;;;;2.28;2.08;;;;;;;;;;5047062;28;20039;-60
2021/09/22 14:34:12;;;;;;;2.30;2.10;;;;;;;;;;5048027;28;20436;-61
2021/09/22 14:36:38;;;;;;;2.20;2.00;;;;;;;;;;5047505;28;20033;-60
2021/09/22 14:39:04;;;;;;;1.98;1.80;;;;;;;;;;5048001;28;20021;-61
2021/09/22 14:41:30;;;;;;;1.80;1.70;;;;;;;;;;5047953;28;20021;-61
2021/09/22 14:43:56;;;;;;;1.98;1.88;;;;;;;;;;5047779;28;20074;-60